»·PEaware :: UAL209 KSNA-KSFO

UAL209 :: KSNA-KSFO

FLIGHT INFORMATION

Flight Status: Arrived
Operator:
United Airlines
More flights by this operator :: More flights under this callsign
Pilot: Sam W. (19108)
Aircraft: AIRBUS A320
(A320)
More flights by this aircraft type
Origin: KSNA John Wayne-Orange Co
United States
Destination: KSFO San Francisco Intl
United States
More flights between these airports :: More routes between these airports
Route: HHERO2 IKAYE RIZIN SPLNT STOKD SERFR SERFR3
File this flight plan on PilotEdge
Remarks:
Altitude:
(Current/Filed)
30,000ft
Speed:
(Current/Filed)
439kts
Departed: 06-May-18 01:13 PM
Arrived: 06-May-18 02:14 PM
Distance/Time
Traveled:
323nm/1:01
Distance/Time
To Go:
Arrived

Flight Plot

Page will automatically refresh every two minutes.

Flight plan parsing failed; only flown route is shown


Map Options




Map Legend


Flown Route
Filed Route
Departure Airport
Arrival Airport
Navaid (VOR, NDB)
Fix

Horizontal Profiles

Position Reports

Time Latitude Longitude Heading Altitude Ground
Speed
06-May-18 12:29 33.677903 -117.863228 117 70ft 0kts
06-May-18 12:30 33.677903 -117.863228 117 70ft 0kts
06-May-18 12:31 33.677903 -117.863228 117 70ft 0kts
06-May-18 12:32 33.677903 -117.863228 117 70ft 0kts
06-May-18 12:33 33.677903 -117.863228 117 70ft 0kts
06-May-18 12:34 33.677903 -117.863228 117 70ft 0kts
06-May-18 12:35 33.677903 -117.863228 117 70ft 0kts
06-May-18 12:36 33.677903 -117.863228 117 70ft 0kts
06-May-18 12:37 33.677903 -117.863228 117 70ft 0kts
06-May-18 12:38 33.677903 -117.863228 117 70ft 0kts
06-May-18 12:39 33.677903 -117.863228 117 70ft 0kts
06-May-18 12:40 33.677903 -117.863228 117 70ft 0kts
06-May-18 12:41 33.677903 -117.863228 117 70ft 0kts
06-May-18 12:42 33.677903 -117.863228 117 70ft 0kts
06-May-18 12:51 33.677160 -117.863709 116 70ft 0kts
06-May-18 12:52 33.677160 -117.863709 116 70ft 0kts
06-May-18 12:53 33.677160 -117.863709 116 70ft 0kts
06-May-18 12:54 33.677160 -117.863709 116 70ft 0kts
06-May-18 12:55 33.677160 -117.863709 116 70ft 0kts
06-May-18 12:56 33.677160 -117.863709 116 70ft 0kts
06-May-18 12:57 33.677160 -117.863709 116 70ft 0kts
06-May-18 12:58 33.677160 -117.863709 116 70ft 0kts
06-May-18 12:59 33.677160 -117.863709 116 70ft 0kts
06-May-18 13:00 33.677160 -117.863709 116 70ft 0kts
06-May-18 13:01 33.677168 -117.863730 116 70ft 1kts
06-May-18 13:02 33.677308 -117.864428 52 70ft 2kts
06-May-18 13:03 33.677129 -117.864583 28 70ft 0kts
06-May-18 13:04 33.677129 -117.864583 28 70ft 0kts
06-May-18 13:05 33.676501 -117.864996 28 70ft 0kts
06-May-18 13:06 33.676522 -117.864982 28 70ft 0kts
06-May-18 13:07 33.676601 -117.864946 1 70ft 0kts
06-May-18 13:08 33.679575 -117.863649 27 70ft 19kts
06-May-18 13:09 33.680686 -117.863244 302 70ft 0kts
06-May-18 13:10 33.680688 -117.863248 302 70ft 0kts
06-May-18 13:11 33.680688 -117.863248 302 70ft 0kts
06-May-18 13:12 33.680689 -117.863249 302 70ft 0kts
06-May-18 13:13 33.679139 -117.866687 207 70ft 64kts
06-May-18 13:14 33.644444 -117.887467 205 2333ft 151kts
06-May-18 13:15 33.595719 -117.895660 187 3735ft 210kts
06-May-18 13:16 33.540202 -117.934531 225 5534ft 270kts
06-May-18 13:17 33.484656 -117.997383 225 8502ft 278kts
06-May-18 13:18 33.443504 -118.077535 238 10015ft 285kts
06-May-18 13:19 33.413442 -118.166787 271 10584ft 323kts
06-May-18 13:20 33.436007 -118.280885 280 11898ft 369kts
06-May-18 13:21 33.480200 -118.393569 295 14203ft 380kts
06-May-18 13:22 33.534226 -118.503411 310 16306ft 392kts
06-May-18 13:23 33.614244 -118.594872 312 18273ft 401kts
06-May-18 13:24 33.694778 -118.689032 312 20074ft 409kts
06-May-18 13:25 33.777453 -118.785159 311 21726ft 416kts
06-May-18 13:26 33.861110 -118.882825 312 23252ft 423kts
06-May-18 13:27 33.945872 -118.982246 311 24632ft 429kts
06-May-18 13:28 34.032321 -119.083717 311 25928ft 436kts
06-May-18 13:29 34.119599 -119.186601 311 27148ft 443kts
06-May-18 13:30 34.207057 -119.289914 311 28786ft 437kts
06-May-18 13:31 34.293650 -119.392624 311 30079ft 433kts
06-May-18 13:32 34.379282 -119.494469 311 30086ft 432kts
06-May-18 13:33 34.464414 -119.597581 309 30088ft 431kts
06-May-18 13:34 34.548479 -119.701320 310 30085ft 432kts
06-May-18 13:35 34.632591 -119.805243 310 30096ft 432kts
06-May-18 13:36 34.716944 -119.909692 310 30126ft 431kts
06-May-18 13:37 34.800831 -120.013895 310 30140ft 431kts
06-May-18 13:38 34.884830 -120.118593 309 30161ft 430kts
06-May-18 13:39 34.968258 -120.222874 309 30160ft 429kts
06-May-18 13:40 35.051543 -120.327345 309 30116ft 430kts
06-May-18 13:41 35.137915 -120.429096 312 30116ft 431kts
06-May-18 13:42 35.226349 -120.528041 312 30112ft 431kts
06-May-18 13:43 35.314749 -120.627499 312 30135ft 430kts
06-May-18 13:44 35.402740 -120.726781 312 30137ft 430kts
06-May-18 13:45 35.491337 -120.825404 316 30151ft 433kts
06-May-18 13:46 35.587826 -120.914693 317 30160ft 433kts
06-May-18 13:47 35.683612 -121.003984 317 30163ft 432kts
06-May-18 13:48 35.778854 -121.092781 317 30165ft 431kts
06-May-18 13:49 35.874296 -121.182158 317 30166ft 429kts
06-May-18 13:50 35.969473 -121.271435 317 30138ft 428kts
06-May-18 13:51 36.064356 -121.360633 318 30143ft 428kts
06-May-18 13:52 36.164343 -121.439309 322 30085ft 428kts
06-May-18 13:53 36.263952 -121.517226 321 27879ft 415kts
06-May-18 13:54 36.360115 -121.592626 321 25723ft 401kts
06-May-18 13:55 36.452587 -121.665299 320 23687ft 387kts
06-May-18 13:56 36.542228 -121.736024 322 21742ft 376kts
06-May-18 13:57 36.629526 -121.805148 322 19868ft 368kts
06-May-18 13:58 36.715300 -121.873212 322 18017ft 362kts
06-May-18 13:59 36.811304 -121.914195 343 16108ft 369kts
06-May-18 14:00 36.910547 -121.941208 342 14076ft 360kts
06-May-18 14:01 36.968890 -121.959380 339 12950ft 350kts
06-May-18 14:02 36.988262 -121.966833 338 12589ft 346kts
06-May-18 14:03 37.077422 -122.001920 339 11356ft 318kts
06-May-18 14:03 37.145291 -122.028429 339 10386ft 302kts
06-May-18 14:05 37.237653 -122.064622 340 8787ft 290kts
06-May-18 14:06 37.311967 -122.093874 340 7612ft 277kts
06-May-18 14:07 37.384193 -122.122859 342 6180ft 267kts
06-May-18 14:08 37.455190 -122.146676 342 4316ft 260kts
06-May-18 14:08 37.510721 -122.165729 342 3570ft 232kts
06-May-18 14:09 37.552385 -122.217022 295 2510ft 214kts
06-May-18 14:10 37.579325 -122.281140 295 1431ft 185kts
06-May-18 14:11 37.600306 -122.331077 294 551ft 133kts
06-May-18 14:12 37.616590 -122.369788 293 28ft 110kts
06-May-18 14:13 37.619102 -122.380750 296 27ft 13kts
06-May-18 14:14 37.621284 -122.386214 298 27ft 21kts
06-May-18 14:15 37.621835 -122.391367 204 27ft 14kts
06-May-18 14:16 37.618844 -122.390232 118 27ft 19kts
06-May-18 14:17 37.617687 -122.388839 156 27ft 0kts
06-May-18 14:18 37.617687 -122.388839 156 27ft 0kts
06-May-18 14:19 37.617687 -122.388839 156 27ft 0kts
06-May-18 14:20 37.617687 -122.388839 156 27ft 0kts
06-May-18 14:21 37.617687 -122.388839 156 27ft 0kts
06-May-18 14:22 37.617687 -122.388839 156 27ft 0kts
06-May-18 14:23 37.617687 -122.388839 156 27ft 0kts

Navigation Log

Ident Type
Flight plan parsing failed, navigation log unavailable